Time;durP1;ratioP1;P1;durP2;ratioP2;P2;SDS_P1;SDS_P2;PMS_P1;PMS_P2;Temp;Humidity;BMP_temperature;BMP_pressure;BME280_temperature;BME280_humidity;BME280_pressure;Samples;Min_cycle;Max_cycle;Signal;HPM_P1;HPM_P2
2022/03/15 00:00:33;;;;;;;33.63;20.97;;;7.80;99.90;;;;;;5044416;28;20480;-84
2022/03/15 00:03:00;;;;;;;30.67;19.57;;;7.90;99.90;;;;;;5045907;28;20454;-84
2022/03/15 00:05:26;;;;;;;30.53;20.87;;;7.90;99.90;;;;;;5051923;28;20439;-83
2022/03/15 00:07:55;;;;;;;27.67;19.90;;;7.90;99.90;;;;;;5050796;28;20446;-83
2022/03/15 00:10:22;;;;;;;28.77;20.13;;;7.80;99.90;;;;;;5048175;28;20866;-83
2022/03/15 00:12:49;;;;;;;32.27;21.47;;;7.90;99.90;;;;;;5043335;28;20479;-82
2022/03/15 00:15:16;;;;;;;25.90;17.83;;;7.90;99.90;;;;;;5043206;28;20485;-85
2022/03/15 00:17:44;;;;;;;26.57;20.27;;;7.80;99.90;;;;;;5045593;28;20421;-84
2022/03/15 00:20:18;;;;;;;30.57;20.90;;;7.90;99.90;;;;;;5046120;28;20505;-83
2022/03/15 00:22:46;;;;;;;29.00;18.10;;;7.90;99.90;;;;;;5047582;28;20425;-84
2022/03/15 00:25:16;;;;;;;30.10;19.77;;;7.90;99.90;;;;;;5045496;28;20450;-84
2022/03/15 00:27:44;;;;;;;27.70;20.23;;;7.80;99.90;;;;;;5048954;28;20446;-83
2022/03/15 00:30:12;;;;;;;29.20;18.97;;;7.80;99.90;;;;;;5046058;28;20427;-84
2022/03/15 00:32:39;;;;;;;26.13;18.37;;;7.80;99.90;;;;;;5045366;28;20483;-83
2022/03/15 00:35:11;;;;;;;30.17;20.00;;;7.80;99.90;;;;;;5046117;28;20466;-84
2022/03/15 00:37:38;;;;;;;29.70;20.10;;;7.80;99.90;;;;;;5046075;28;20406;-84
2022/03/15 00:40:05;;;;;;;27.50;19.10;;;7.70;99.90;;;;;;5044763;28;20877;-84
2022/03/15 00:42:34;;;;;;;31.97;20.10;;;7.70;99.90;;;;;;5044557;28;20802;-84
2022/03/15 00:45:01;;;;;;;29.70;18.13;;;7.60;99.90;;;;;;5044215;28;20486;-84
2022/03/15 00:47:28;;;;;;;30.13;18.17;;;7.60;99.90;;;;;;5044582;28;20431;-84
2022/03/15 00:49:55;;;;;;;29.60;19.63;;;7.60;99.90;;;;;;5044298;28;20449;-84
2022/03/15 00:52:21;;;;;;;32.93;19.57;;;7.60;99.90;;;;;;5044151;28;20451;-84
2022/03/15 00:54:48;;;;;;;27.23;18.97;;;7.60;99.90;;;;;;5045382;28;20509;-82
2022/03/15 00:57:15;;;;;;;25.47;18.23;;;;;;;;;;5044996;28;20801;-84
2022/03/15 00:59:46;;;;;;;31.00;19.93;;;7.60;99.90;;;;;;5043448;28;20917;-84
2022/03/15 01:02:12;;;;;;;34.40;19.60;;;7.60;99.90;;;;;;5044084;28;20496;-84
2022/03/15 01:04:39;;;;;;;31.27;19.15;;;7.60;99.90;;;;;;5043609;28;20464;-84
2022/03/15 01:07:05;;;;;;;30.87;21.73;;;7.60;99.90;;;;;;5047960;28;20205;-82
2022/03/15 01:09:32;;;;;;;27.03;18.93;;;7.80;99.90;;;;;;5048411;28;20429;-81
2022/03/15 01:11:59;;;;;;;27.83;18.80;;;7.60;99.90;;;;;;5058012;28;20502;-83
2022/03/15 01:14:27;;;;;;;33.33;20.77;;;7.60;99.90;;;;;;5057589;28;20229;-83
2022/03/15 01:16:55;;;;;;;26.90;18.83;;;7.60;99.90;;;;;;5044896;28;20563;-83
2022/03/15 01:19:22;;;;;;;29.20;17.80;;;7.50;99.90;;;;;;5039951;28;20462;-83
2022/03/15 01:21:49;;;;;;;27.17;17.40;;;7.50;99.90;;;;;;5042095;28;20427;-84
2022/03/15 01:24:15;;;;;;;25.80;18.67;;;7.40;99.90;;;;;;5045403;28;20468;-84
2022/03/15 01:26:42;;;;;;;29.57;19.60;;;7.30;99.90;;;;;;5049758;28;20474;-84
2022/03/15 01:29:09;;;;;;;33.22;20.60;;;7.30;99.90;;;;;;5051797;28;20469;-84
2022/03/15 01:31:35;;;;;;;26.77;19.17;;;7.20;99.90;;;;;;5059434;28;20299;-84
2022/03/15 01:34:03;;;;;;;34.53;19.63;;;7.20;99.90;;;;;;5058306;28;20242;-84
2022/03/15 01:36:30;;;;;;;29.55;19.85;;;7.20;99.90;;;;;;5053209;28;20422;-84
2022/03/15 01:38:58;;;;;;;33.22;20.02;;;7.20;99.90;;;;;;5056061;28;20230;-84
2022/03/15 01:41:27;;;;;;;29.33;18.98;;;7.20;99.90;;;;;;5049368;28;20224;-84
2022/03/15 01:43:54;;;;;;;33.00;19.63;;;7.20;99.90;;;;;;5050436;28;20233;-84
2022/03/15 01:46:20;;;;;;;29.90;19.13;;;7.10;99.90;;;;;;5047439;28;20502;-84
2022/03/15 01:48:47;;;;;;;30.50;17.60;;;7.10;99.90;;;;;;5047644;28;20208;-83
2022/03/15 01:51:16;;;;;;;27.75;19.33;;;7.00;99.90;;;;;;5048015;28;20451;-83
2022/03/15 01:53:43;;;;;;;32.25;20.17;;;7.00;99.90;;;;;;5048170;28;20236;-83
2022/03/15 01:56:10;;;;;;;37.92;20.80;;;7.00;99.90;;;;;;5048400;28;20203;-83
2022/03/15 01:58:36;;;;;;;30.20;20.30;;;6.90;99.90;;;;;;5047911;28;20211;-84
2022/03/15 02:01:03;;;;;;;32.38;20.00;;;7.00;99.90;;;;;;5045939;28;20570;-83
2022/03/15 02:03:31;;;;;;;30.67;17.47;;;7.20;99.90;;;;;;5047705;28;20206;-83
2022/03/15 02:05:57;;;;;;;30.60;19.65;;;7.00;99.90;;;;;;5058763;28;20402;-83
2022/03/15 02:08:25;;;;;;;31.20;19.73;;;7.20;99.90;;;;;;5060530;28;20189;-81
2022/03/15 02:10:52;;;;;;;33.08;20.83;;;7.00;99.90;;;;;;5051615;28;20196;-83
2022/03/15 02:13:18;;;;;;;34.00;21.80;;;7.00;99.90;;;;;;5044077;28;20223;-82
2022/03/15 02:15:45;;;;;;;37.92;22.75;;;7.00;99.90;;;;;;5042561;28;20485;-82
2022/03/15 02:18:11;;;;;;;38.78;20.77;;;6.80;99.90;;;;;;5043216;28;20211;-82
2022/03/15 02:20:39;;;;;;;31.65;20.20;;;7.00;99.90;;;;;;5042870;28;20671;-84
2022/03/15 02:23:06;;;;;;;32.33;20.83;;;7.00;99.90;;;;;;5043494;28;20196;-82
2022/03/15 02:25:32;;;;;;;27.50;20.25;;;7.00;99.90;;;;;;5045500;28;20225;-84
2022/03/15 02:28:00;;;;;;;32.53;20.42;;;7.00;99.90;;;;;;5051073;28;20199;-84
2022/03/15 02:30:27;;;;;;;31.58;19.35;;;7.00;99.90;;;;;;5049411;28;20215;-84
2022/03/15 02:32:54;;;;;;;36.35;22.08;;;6.90;99.90;;;;;;5047276;28;20216;-83
2022/03/15 02:35:21;;;;;;;37.05;22.83;;;6.90;99.90;;;;;;5045871;28;20228;-83
2022/03/15 02:37:49;;;;;;;32.40;21.30;;;6.80;99.90;;;;;;5045555;28;20201;-84
2022/03/15 02:40:16;;;;;;;30.02;20.02;;;6.80;99.90;;;;;;5044092;28;20208;-83
2022/03/15 02:42:43;;;;;;;33.35;20.52;;;6.80;99.90;;;;;;5045837;28;20204;-83
2022/03/15 02:45:11;;;;;;;34.03;22.50;;;6.80;99.90;;;;;;5044738;28;20224;-83
2022/03/15 02:47:38;;;;;;;34.60;22.00;;;6.70;99.90;;;;;;5046362;28;20449;-83
2022/03/15 02:50:06;;;;;;;30.70;20.50;;;6.70;99.90;;;;;;5046781;28;20293;-83
2022/03/15 02:52:32;;;;;;;33.95;21.88;;;6.60;99.90;;;;;;5044931;28;20235;-83
2022/03/15 02:55:00;;;;;;;37.72;21.90;;;6.70;99.90;;;;;;5045929;28;20230;-83
2022/03/15 02:57:28;;;;;;;34.10;21.73;;;6.60;99.90;;;;;;5045219;28;20231;-83
2022/03/15 02:59:56;;;;;;;38.50;21.80;;;6.60;99.90;;;;;;5045396;28;20302;-83
2022/03/15 03:02:23;;;;;;;32.20;21.75;;;6.60;99.90;;;;;;5044896;28;20262;-83
2022/03/15 03:04:51;;;;;;;29.75;20.92;;;6.60;99.90;;;;;;5043994;28;20229;-83
2022/03/15 03:07:18;;;;;;;30.77;19.50;;;6.60;99.90;;;;;;5044216;28;20210;-82
2022/03/15 03:09:45;;;;;;;33.35;21.10;;;6.60;99.90;;;;;;5044588;28;20199;-83
2022/03/15 03:12:16;;;;;;;33.97;20.73;;;6.60;99.90;;;;;;5046227;28;20199;-83
2022/03/15 03:14:45;;;;;;;34.50;20.48;;;6.50;99.90;;;;;;5045088;28;20258;-84
2022/03/15 03:17:12;;;;;;;36.00;22.05;;;6.60;99.90;;;;;;5044749;28;20208;-83
2022/03/15 03:19:39;;;;;;;34.40;21.98;;;6.60;99.90;;;;;;5043608;28;20235;-84
2022/03/15 03:22:06;;;;;;;38.53;23.88;;;6.60;99.90;;;;;;5045625;28;20236;-84
2022/03/15 03:24:32;;;;;;;34.88;21.42;;;6.60;99.90;;;;;;5046325;28;20223;-83
2022/03/15 03:27:00;;;;;;;35.47;20.42;;;6.50;99.90;;;;;;5044504;28;20205;-83
2022/03/15 03:29:29;;;;;;;29.83;19.25;;;6.50;99.90;;;;;;5042776;28;20215;-83
2022/03/15 03:31:56;;;;;;;36.45;21.10;;;6.40;99.90;;;;;;5043388;28;20208;-83
2022/03/15 03:34:23;;;;;;;33.10;21.58;;;6.30;99.90;;;;;;5046252;28;20295;-83
2022/03/15 03:36:51;;;;;;;35.30;21.60;;;6.10;99.90;;;;;;5045159;28;20204;-83
2022/03/15 03:39:18;;;;;;;34.83;22.02;;;6.20;99.90;;;;;;5044953;28;20207;-83
2022/03/15 03:41:44;;;;;;;38.42;21.98;;;6.10;99.90;;;;;;5043853;28;20208;-83
2022/03/15 03:44:11;;;;;;;39.13;24.05;;;6.20;99.90;;;;;;5043836;28;20227;-84
2022/03/15 03:46:39;;;;;;;35.55;22.33;;;6.20;99.90;;;;;;5044259;28;20199;-83
2022/03/15 03:49:05;;;;;;;39.20;22.40;;;5.70;99.90;;;;;;5057187;28;20188;-82
2022/03/15 03:51:32;;;;;;;34.28;21.08;;;6.10;99.90;;;;;;5058983;28;20180;-82
2022/03/15 03:53:58;;;;;;;35.22;22.02;;;6.10;99.90;;;;;;5059103;28;20243;-82
2022/03/15 03:56:25;;;;;;;42.75;23.52;;;6.00;99.90;;;;;;5059118;28;20246;-82
2022/03/15 03:58:51;;;;;;;33.15;22.85;;;6.00;99.90;;;;;;5058630;28;20238;-82
2022/03/15 04:01:18;;;;;;;44.65;26.65;;;6.00;99.90;;;;;;5043848;28;20199;-82
2022/03/15 04:03:46;;;;;;;44.85;25.92;;;6.00;99.90;;;;;;5043848;28;20223;-83
2022/03/15 04:06:13;;;;;;;42.75;25.63;;;6.00;99.90;;;;;;5041213;28;20203;-83
2022/03/15 04:08:41;;;;;;;40.17;24.75;;;6.00;99.90;;;;;;5043496;28;20213;-83
2022/03/15 04:11:10;;;;;;;49.20;26.70;;;5.90;99.90;;;;;;5045480;28;20275;-83
2022/03/15 04:13:44;;;;;;;48.42;25.17;;;6.10;99.90;;;;;;5052529;28;20241;-82
2022/03/15 04:16:10;;;;;;;47.70;25.80;;;5.90;99.90;;;;;;5045111;28;20192;-83
2022/03/15 04:18:37;;;;;;;40.97;24.02;;;5.80;99.90;;;;;;5043820;28;20218;-83
2022/03/15 04:21:05;;;;;;;45.72;25.95;;;5.80;99.90;;;;;;5045448;28;20303;-84
2022/03/15 04:23:32;;;;;;;52.08;27.67;;;5.80;99.90;;;;;;5044504;28;20598;-84
2022/03/15 04:25:58;;;;;;;50.45;27.60;;;5.80;99.90;;;;;;5045255;28;20235;-83
2022/03/15 04:28:27;;;;;;;49.45;27.77;;;5.80;99.90;;;;;;5043726;28;20258;-85
2022/03/15 04:30:53;;;;;;;47.03;27.52;;;5.80;99.90;;;;;;5043711;28;20207;-84
2022/03/15 04:33:21;;;;;;;42.90;25.23;;;5.70;99.90;;;;;;5044315;28;20210;-82
2022/03/15 04:35:49;;;;;;;45.85;27.70;;;5.70;99.90;;;;;;5044953;28;20230;-82
2022/03/15 04:38:17;;;;;;;44.50;27.20;;;5.60;99.90;;;;;;5039459;28;20203;-83
2022/03/15 04:40:43;;;;;;;46.15;26.55;;;5.60;99.90;;;;;;5045699;28;20697;-83
2022/03/15 04:43:10;;;;;;;45.47;27.65;;;5.70;99.90;;;;;;5041445;28;20468;-83
2022/03/15 04:45:37;;;;;;;50.13;27.30;;;5.60;99.90;;;;;;5076160;22;20235;-84
2022/03/15 04:48:03;;;;;;;55.50;29.65;;;5.60;99.90;;;;;;5073248;28;20207;-83
2022/03/15 04:50:31;;;;;;;45.03;25.58;;;5.70;99.90;;;;;;5073543;28;20207;-83
2022/03/15 04:52:57;;;;;;;47.42;27.38;;;5.60;99.90;;;;;;5076253;28;20205;-82
2022/03/15 04:55:26;;;;;;;41.65;25.40;;;5.70;99.90;;;;;;5078203;28;20245;-82
2022/03/15 04:57:53;;;;;;;51.97;28.27;;;5.60;99.90;;;;;;5078176;28;20183;-82
2022/03/15 05:00:19;;;;;;;39.70;26.70;;;5.60;99.90;;;;;;5078122;28;20190;-82
2022/03/15 05:02:46;;;;;;;47.90;27.42;;;5.50;99.90;;;;;;5076151;28;20233;-82
2022/03/15 05:05:13;;;;;;;47.67;26.15;;;5.50;99.90;;;;;;5074708;28;20678;-83
2022/03/15 05:07:40;;;;;;;48.95;27.30;;;5.60;99.90;;;;;;5074110;28;20213;-83
2022/03/15 05:12:53;;;;;;;50.97;28.58;;;5.40;99.90;;;;;;5077651;28;20223;-83
2022/03/15 05:15:20;;;;;;;48.60;27.80;;;5.50;99.90;;;;;;5077271;28;20258;-83
2022/03/15 05:17:47;;;;;;;50.05;28.55;;;5.50;99.90;;;;;;5075351;28;20202;-82
2022/03/15 05:20:14;;;;;;;43.67;26.02;;;5.50;99.90;;;;;;5069216;28;20202;-83
2022/03/15 05:22:42;;;;;;;53.55;28.92;;;5.50;99.90;;;;;;5062295;28;20233;-83
2022/03/15 05:25:10;;;;;;;51.75;28.30;;;5.50;99.90;;;;;;5061860;28;20288;-83
2022/03/15 05:27:37;;;;;;;49.67;27.52;;;5.50;99.90;;;;;;5061368;28;20622;-83
2022/03/15 05:30:07;;;;;;;62.80;32.30;;;5.50;99.90;;;;;;5061036;28;20284;-83
2022/03/15 05:32:34;;;;;;;43.10;26.10;;;5.50;99.90;;;;;;5061536;28;20195;-84
2022/03/15 05:35:01;;;;;;;44.80;26.08;;;5.50;99.90;;;;;;5061673;28;20253;-83
2022/03/15 05:37:29;;;;;;;47.15;28.05;;;5.50;99.90;;;;;;5073283;28;20198;-83
2022/03/15 05:39:55;;;;;;;44.88;29.83;;;5.50;99.90;;;;;;5077620;28;20207;-83
2022/03/15 05:42:22;;;;;;;61.80;34.13;;;5.50;99.90;;;;;;5069406;28;20206;-83
2022/03/15 05:44:49;;;;;;;47.67;27.13;;;5.60;99.90;;;;;;5061469;28;20234;-83
2022/03/15 05:47:17;;;;;;;45.33;25.05;;;5.50;99.90;;;;;;5063151;28;20394;-83
2022/03/15 05:49:44;;;;;;;50.17;27.50;;;5.40;99.90;;;;;;5061600;28;20572;-83
2022/03/15 05:52:10;;;;;;;49.53;28.48;;;5.30;99.90;;;;;;5061975;28;20207;-84
2022/03/15 05:54:37;;;;;;;53.75;29.60;;;5.30;99.90;;;;;;5061291;28;20219;-83
2022/03/15 05:57:04;;;;;;;45.00;26.88;;;5.30;99.90;;;;;;5060250;28;20207;-83
2022/03/15 05:59:31;;;;;;;45.40;27.60;;;5.30;99.90;;;;;;5060841;28;20199;-85
2022/03/15 06:01:58;;;;;;;49.40;26.90;;;5.40;99.90;;;;;;5062810;28;20199;-84
2022/03/15 06:04:28;;;;;;;51.28;27.25;;;5.40;99.90;;;;;;5060895;28;20640;-84
2022/03/15 06:06:56;;;;;;;47.88;26.52;;;5.30;99.90;;;;;;5063544;28;20245;-84
2022/03/15 06:09:23;;;;;;;51.25;28.10;;;5.40;99.90;;;;;;5069053;28;20235;-84
2022/03/15 06:11:51;;;;;;;44.47;23.17;;;5.80;99.90;;;;;;5075231;28;20195;-84
2022/03/15 06:14:18;;;;;;;45.42;27.35;;;5.60;99.90;;;;;;5068662;28;20234;-84
2022/03/15 06:16:45;;;;;;;47.15;24.33;;;5.70;99.90;;;;;;5064791;28;20662;-85
2022/03/15 06:19:11;;;;;;;41.25;24.63;;;5.70;99.90;;;;;;5073387;28;20198;-84
2022/03/15 06:21:39;;;;;;;39.03;23.05;;;5.60;99.90;;;;;;5077546;28;20281;-83
2022/03/15 06:24:07;;;;;;;41.25;23.92;;;5.70;99.90;;;;;;5076600;28;20241;-83
2022/03/15 06:26:34;;;;;;;45.95;23.52;;;5.70;99.90;;;;;;5078426;28;20198;-85
2022/03/15 06:29:03;;;;;;;39.55;22.67;;;5.60;99.90;;;;;;5078226;28;20233;-83
2022/03/15 06:31:30;;;;;;;34.78;22.27;;;5.80;99.90;;;;;;5078644;28;20259;-82
2022/03/15 06:33:57;;;;;;;34.47;23.00;;;5.70;99.90;;;;;;5079562;28;20207;-82
2022/03/15 06:36:23;;;;;;;38.80;21.40;;;5.60;99.90;;;;;;5077591;28;20227;-83
2022/03/15 06:38:51;;;;;;;34.95;21.58;;;5.60;99.90;;;;;;5074326;28;20207;-83
2022/03/15 06:41:18;;;;;;;40.83;23.02;;;5.60;99.90;;;;;;5072995;28;20202;-83
2022/03/15 06:43:45;;;;;;;39.03;23.95;;;5.40;99.90;;;;;;5070913;28;20203;-83
2022/03/15 06:46:11;;;;;;;39.33;23.95;;;5.50;99.90;;;;;;5072377;28;20209;-83
2022/03/15 06:48:38;;;;;;;49.55;23.65;;;5.50;99.90;;;;;;5071721;28;20203;-83
2022/03/15 06:51:05;;;;;;;37.70;24.00;;;5.60;99.90;;;;;;5067534;28;20229;-83
2022/03/15 06:53:32;;;;;;;39.20;25.00;;;5.70;99.90;;;;;;5067822;28;20229;-84
2022/03/15 06:56:00;;;;;;;37.45;23.42;;;5.80;99.90;;;;;;5067129;28;20219;-84
2022/03/15 06:58:26;;;;;;;46.22;26.85;;;5.80;99.90;;;;;;5065419;28;20649;-84
2022/03/15 07:00:55;;;;;;;40.15;23.95;;;5.90;99.90;;;;;;5066081;28;20257;-83
2022/03/15 07:03:21;;;;;;;38.55;24.20;;;5.90;99.90;;;;;;5067517;28;20199;-84
2022/03/15 07:05:48;;;;;;;42.63;25.10;;;5.90;99.90;;;;;;5067786;28;20223;-84
2022/03/15 07:08:15;;;;;;;46.22;27.10;;;6.00;99.90;;;;;;5069225;28;20203;-84
2022/03/15 07:10:41;;;;;;;42.67;25.02;;;5.90;99.90;;;;;;5065942;28;20241;-84
2022/03/15 07:13:09;;;;;;;47.65;27.98;;;5.90;99.90;;;;;;5065610;28;20203;-84
2022/03/15 07:15:36;;;;;;;41.15;24.75;;;5.90;99.90;;;;;;5064786;28;20654;-84
2022/03/15 07:18:02;;;;;;;38.65;25.90;;;5.90;99.90;;;;;;5065422;28;20543;-85
2022/03/15 07:20:29;;;;;;;44.88;27.05;;;5.90;99.90;;;;;;5066198;28;20202;-84
2022/03/15 07:22:56;;;;;;;37.60;24.77;;;6.00;99.90;;;;;;5061380;28;20211;-83
2022/03/15 07:25:24;;;;;;;44.13;25.48;;;6.50;99.90;;;;;;5062206;28;20219;-84
2022/03/15 07:27:51;;;;;;;46.58;26.63;;;5.90;99.90;;;;;;5061831;28;20199;-84
2022/03/15 07:30:19;;;;;;;45.40;25.40;;;6.00;99.90;;;;;;5063454;28;20264;-84
2022/03/15 07:32:46;;;;;;;53.42;28.27;;;6.10;99.90;;;;;;5064391;28;20214;-84
2022/03/15 07:35:13;;;;;;;45.60;27.63;;;6.10;99.90;;;;;;5063793;28;20218;-85
2022/03/15 07:37:49;;;;;;;43.30;26.52;;;6.60;99.90;;;;;;5064626;28;20619;-84
2022/03/15 07:40:16;;;;;;;42.72;24.58;;;6.30;99.90;;;;;;5063154;28;20210;-83
2022/03/15 07:42:43;;;;;;;38.63;24.90;;;6.40;99.90;;;;;;5064063;28;20214;-84
2022/03/15 07:45:10;;;;;;;38.90;24.67;;;6.50;99.90;;;;;;5061771;28;20727;-84
2022/03/15 07:47:38;;;;;;;41.47;24.92;;;6.50;99.90;;;;;;5063678;28;20208;-84
2022/03/15 07:50:06;;;;;;;42.95;24.95;;;6.60;99.90;;;;;;5063675;28;20210;-84
2022/03/15 07:52:33;;;;;;;43.45;28.25;;;6.70;99.90;;;;;;5063941;28;20206;-85
2022/03/15 07:54:59;;;;;;;50.42;32.47;;;6.70;99.90;;;;;;5064254;28;20223;-84
2022/03/15 07:57:26;;;;;;;52.22;33.35;;;7.10;99.90;;;;;;5064126;28;20693;-84
2022/03/15 07:59:53;;;;;;;45.13;27.67;;;6.90;99.90;;;;;;5064461;28;20202;-84
2022/03/15 08:02:20;;;;;;;45.30;25.93;;;7.00;99.90;;;;;;5064767;28;20262;-84
2022/03/15 08:04:48;;;;;;;43.95;25.80;;;7.10;99.90;;;;;;5065306;28;20471;-85
2022/03/15 08:07:15;;;;;;;40.75;25.48;;;7.20;99.90;;;;;;5064661;28;20584;-84
2022/03/15 08:09:42;;;;;;;43.20;28.38;;;7.30;99.90;;;;;;5066681;28;20213;-83
2022/03/15 08:12:09;;;;;;;40.10;28.07;;;7.40;99.90;;;;;;5065317;28;20570;-84
2022/03/15 08:14:35;;;;;;;40.43;26.33;;;7.50;99.90;;;;;;5064468;28;20447;-84
2022/03/15 08:17:02;;;;;;;45.47;25.60;;;7.60;99.90;;;;;;5065500;28;20481;-84
2022/03/15 08:19:29;;;;;;;38.80;23.37;;;7.60;99.90;;;;;;5064695;28;20781;-84
2022/03/15 08:21:58;;;;;;;33.33;22.83;;;7.80;99.90;;;;;;5064775;28;20458;-85
2022/03/15 08:24:27;;;;;;;39.80;25.07;;;7.90;99.90;;;;;;5064359;28;20502;-84
2022/03/15 08:26:55;;;;;;;34.90;22.50;;;7.90;99.90;;;;;;5063066;28;20433;-85
2022/03/15 08:29:21;;;;;;;41.50;25.70;;;8.00;99.90;;;;;;5064587;28;20487;-85
2022/03/15 08:31:48;;;;;;;44.70;25.60;;;8.10;99.90;;;;;;5063373;28;20450;-85
2022/03/15 08:34:15;;;;;;;43.37;26.37;;;8.20;99.90;;;;;;5063872;28;20450;-84
2022/03/15 08:36:44;;;;;;;36.10;24.77;;;8.30;99.90;;;;;;5064156;28;20458;-84
2022/03/15 08:39:12;;;;;;;37.07;24.20;;;8.50;99.90;;;;;;5065130;28;20423;-84
2022/03/15 08:41:41;;;;;;;35.50;24.03;;;8.60;99.90;;;;;;5064574;28;20475;-84
2022/03/15 08:44:08;;;;;;;40.13;25.50;;;8.70;99.90;;;;;;5064861;28;20447;-83
2022/03/15 08:46:35;;;;;;;39.20;23.23;;;8.70;99.90;;;;;;5064634;28;20447;-85
2022/03/15 08:49:04;;;;;;;45.40;27.77;;;8.70;99.90;;;;;;5063263;28;20438;-84
2022/03/15 08:51:30;;;;;;;45.17;25.00;;;8.80;99.90;;;;;;5063537;28;20425;-84
2022/03/15 08:53:57;;;;;;;41.50;24.83;;;9.00;99.90;;;;;;5063051;28;20536;-85
2022/03/15 08:56:25;;;;;;;43.20;26.97;;;9.00;99.90;;;;;;5074004;28;20492;-84
2022/03/15 08:58:51;;;;;;;37.33;22.77;;;8.90;99.90;;;;;;5071157;28;20412;-84
2022/03/15 09:01:18;;;;;;;34.73;23.73;;;8.90;99.90;;;;;;5062951;28;20412;-84
2022/03/15 09:03:45;;;;;;;36.20;22.93;;;9.00;99.90;;;;;;5062190;28;20762;-84
2022/03/15 09:06:11;;;;;;;36.30;23.27;;;9.00;99.90;;;;;;5062434;28;20420;-85
2022/03/15 09:08:38;;;;;;;46.17;26.37;;;9.10;99.90;;;;;;5061796;28;20867;-84
2022/03/15 09:11:04;;;;;;;41.70;24.47;;;9.30;99.90;;;;;;5062561;28;20845;-85
2022/03/15 09:13:32;;;;;;;39.40;24.70;;;9.30;99.90;;;;;;5062389;28;20456;-84
2022/03/15 09:15:59;;;;;;;40.30;23.67;;;9.50;99.90;;;;;;5073169;28;20466;-83
2022/03/15 09:18:26;;;;;;;33.43;25.20;;;9.70;99.90;;;;;;5076001;28;20906;-84
2022/03/15 09:20:53;;;;;;;38.60;22.37;;;9.80;99.90;;;;;;5077618;28;20871;-84
2022/03/15 09:23:20;;;;;;;33.47;22.03;;;9.80;99.90;;;;;;5076310;28;20423;-84
2022/03/15 09:25:48;;;;;;;36.33;20.73;;;9.90;99.90;;;;;;5076462;28;20471;-84
2022/03/15 09:28:14;;;;;;;31.27;19.57;;;9.90;99.90;;;;;;5076385;28;20413;-83
2022/03/15 09:30:43;;;;;;;33.43;21.90;;;10.10;99.90;;;;;;5075504;28;20452;-85
2022/03/15 09:33:09;;;;;;;38.73;19.10;;;10.00;99.90;;;;;;5075391;28;20452;-84
2022/03/15 09:35:36;;;;;;;26.33;17.80;;;10.20;99.90;;;;;;5063854;28;20489;-84
2022/03/15 09:38:03;;;;;;;31.10;17.40;;;10.30;99.90;;;;;;5062129;28;20451;-84
2022/03/15 09:40:32;;;;;;;27.90;18.67;;;10.50;99.90;;;;;;5062536;28;20446;-85
2022/03/15 09:43:00;;;;;;;35.33;20.37;;;10.50;99.90;;;;;;5063288;28;20446;-85
2022/03/15 09:45:30;;;;;;;31.00;20.80;;;10.70;99.90;;;;;;5069925;28;20458;-84
2022/03/15 09:48:00;;;;;;;28.73;18.93;;;10.70;99.90;;;;;;5071263;28;20439;-84
2022/03/15 09:50:27;;;;;;;28.90;18.87;;;10.60;99.90;;;;;;5070828;28;20433;-84
2022/03/15 09:52:55;;;;;;;27.43;19.13;;;10.60;99.90;;;;;;5066063;28;20424;-85
2022/03/15 09:55:22;;;;;;;33.80;19.63;;;10.50;99.90;;;;;;5066345;28;20444;-86
2022/03/15 09:57:49;;;;;;;25.23;18.30;;;10.50;99.90;;;;;;5067102;28;20420;-85
2022/03/15 10:00:16;;;;;;;28.13;18.20;;;10.70;99.90;;;;;;5067073;28;20437;-85
2022/03/15 10:02:44;;;;;;;31.23;18.13;;;10.70;99.90;;;;;;5065970;28;20428;-84
2022/03/15 10:05:13;;;;;;;28.13;19.97;;;10.70;99.90;;;;;;5064521;28;20477;-84
2022/03/15 10:07:40;;;;;;;32.17;20.03;;;10.80;99.90;;;;;;5064828;28;20936;-84
2022/03/15 10:10:09;;;;;;;31.40;21.10;;;10.90;99.90;;;;;;5064245;28;20423;-84
2022/03/15 10:12:36;;;;;;;30.70;20.93;;;11.00;99.90;;;;;;5065840;28;20480;-85
2022/03/15 10:15:12;;;;;;;36.60;20.40;;;11.10;99.90;;;;;;5066765;28;20455;-85
2022/03/15 10:17:44;;;;;;;29.70;20.53;;;11.30;99.90;;;;;;5067434;28;20428;-84
2022/03/15 10:20:16;;;;;;;25.07;17.77;;;11.30;99.90;;;;;;5064946;28;20447;-85
2022/03/15 10:22:51;;;;;;;38.37;18.60;;;11.30;99.90;;;;;;5066067;28;20409;-84
2022/03/15 10:25:22;;;;;;;32.17;18.97;;;11.40;99.90;;;;;;5065010;28;20507;-85
2022/03/15 10:27:51;;;;;;;29.57;18.27;;;11.60;99.90;;;;;;5064576;28;20497;-85
2022/03/15 10:30:18;;;;;;;24.30;18.03;;;11.60;99.90;;;;;;5065834;28;20416;-85
2022/03/15 10:32:45;;;;;;;31.90;16.90;;;11.50;99.90;;;;;;5063997;28;20782;-84
2022/03/15 10:35:17;;;;;;;26.20;17.50;;;11.40;99.90;;;;;;5066179;28;20510;-84
2022/03/15 10:37:43;;;;;;;29.43;18.10;;;11.50;99.90;;;;;;5064371;28;20555;-85
2022/03/15 10:40:11;;;;;;;23.23;17.00;;;11.50;99.90;;;;;;5064470;28;20470;-83
2022/03/15 10:42:40;;;;;;;34.73;15.13;;;11.30;99.90;;;;;;5064425;28;20468;-85
2022/03/15 10:45:15;;;;;;;23.67;15.17;;;11.40;99.90;;;;;;5085497;22;20490;-84
2022/03/15 10:47:49;;;;;;;28.53;18.63;;;11.70;99.90;;;;;;5056251;28;20393;-84
2022/03/15 10:50:17;;;;;;;23.33;16.00;;;11.40;99.90;;;;;;5057922;28;20404;-82
2022/03/15 10:52:45;;;;;;;34.33;20.67;;;12.00;99.90;;;;;;5056063;28;20398;-82
2022/03/15 10:55:14;;;;;;;25.83;17.90;;;11.90;99.90;;;;;;5055478;28;20464;-83
2022/03/15 10:57:46;;;;;;;26.10;19.40;;;11.70;99.90;;;;;;5053530;28;20482;-84
2022/03/15 11:00:14;;;;;;;22.83;16.27;;;11.70;99.90;;;;;;5054984;28;20413;-83
2022/03/15 11:02:42;;;;;;;39.17;20.20;;;11.60;99.90;;;;;;5049202;28;20525;-83
2022/03/15 11:05:09;;;;;;;27.03;17.13;;;11.60;99.90;;;;;;5048115;28;20441;-84
2022/03/15 11:07:42;;;;;;;27.43;16.00;;;11.60;99.90;;;;;;5046541;28;20932;-84
2022/03/15 11:10:11;;;;;;;23.27;16.63;;;11.70;99.90;;;;;;5048399;28;20470;-84
2022/03/15 11:12:38;;;;;;;26.17;16.80;;;12.00;99.90;;;;;;5045191;28;20421;-84
2022/03/15 11:15:06;;;;;;;30.03;16.20;;;12.00;99.90;;;;;;5045252;28;20529;-84
2022/03/15 11:17:35;;;;;;;24.47;17.70;;;12.00;99.90;;;;;;5043971;28;20542;-84
2022/03/15 11:20:03;;;;;;;32.20;20.57;;;12.10;99.90;;;;;;5044927;28;20436;-84
2022/03/15 11:22:34;;;;;;;30.00;19.20;;;12.40;99.90;;;;;;5044618;28;20451;-84
2022/03/15 11:25:05;;;;;;;25.13;17.60;;;12.10;99.90;;;;;;5046719;28;20952;-84
2022/03/15 11:27:33;;;;;;;25.33;16.70;;;12.10;99.90;;;;;;5044549;28;20462;-83
2022/03/15 11:30:02;;;;;;;26.03;17.30;;;12.10;99.90;;;;;;5044166;28;20422;-83
2022/03/15 11:32:30;;;;;;;23.90;17.40;;;12.10;99.90;;;;;;5044623;28;20433;-83
2022/03/15 11:34:57;;;;;;;25.10;16.57;;;12.30;99.90;;;;;;5044923;28;20862;-84
2022/03/15 11:37:24;;;;;;;25.23;15.97;;;12.30;99.90;;;;;;5044030;28;20464;-84
2022/03/15 11:39:53;;;;;;;30.03;17.90;;;12.30;99.90;;;;;;5044567;28;20485;-83
2022/03/15 11:42:21;;;;;;;29.00;19.70;;;12.60;99.90;;;;;;5049915;28;20421;-83
2022/03/15 11:45:00;;;;;;;25.77;18.53;;;12.40;99.90;;;;;;5051047;28;20539;-83
2022/03/15 11:47:38;;;;;;;25.47;19.43;;;12.40;99.90;;;;;;5045491;28;20405;-83
2022/03/15 11:50:15;;;;;;;25.60;16.87;;;12.40;99.90;;;;;;5043886;28;20461;-84
2022/03/15 11:52:53;;;;;;;23.80;15.27;;;12.60;99.90;;;;;;5044841;28;20481;-84
2022/03/15 11:55:28;;;;;;;24.27;15.27;;;12.80;99.90;;;;;;5049670;28;20470;-85
2022/03/15 11:58:03;;;;;;;24.93;16.90;;;13.00;99.90;;;;;;5053494;28;20458;-84
2022/03/15 12:00:31;;;;;;;24.23;16.60;;;13.00;99.90;;;;;;5057484;28;20429;-84
2022/03/15 12:02:59;;;;;;;22.60;16.67;;;12.80;99.90;;;;;;5057313;28;20462;-84
2022/03/15 12:05:25;;;;;;;23.70;16.20;;;12.70;99.90;;;;;;5052500;28;20520;-84
2022/03/15 12:08:11;;;;;;;22.87;14.70;;;12.80;99.90;;;;;;5046596;28;20424;-84
2022/03/15 12:10:39;;;;;;;29.53;15.90;;;13.00;99.90;;;;;;5043581;28;20450;-84
2022/03/15 12:13:11;;;;;;;25.10;15.90;;;12.70;99.90;;;;;;5045291;28;20443;-83
2022/03/15 12:15:42;;;;;;;27.80;16.60;;;12.60;99.90;;;;;;5043001;28;20456;-85
2022/03/15 12:18:33;;;;;;;25.80;15.70;;;12.60;99.90;;;;;;5042004;28;20514;-84
2022/03/15 12:21:07;;;;;;;24.63;16.53;;;12.40;99.90;;;;;;5043938;28;20439;-84
2022/03/15 12:23:43;;;;;;;33.63;17.23;;;12.40;99.90;;;;;;5047718;28;20442;-84
2022/03/15 12:26:18;;;;;;;26.00;17.03;;;12.10;99.90;;;;;;5049099;28;20471;-84
2022/03/15 12:28:56;;;;;;;26.77;18.40;;;12.70;99.90;;;;;;5052128;28;20421;-84
2022/03/15 12:31:33;;;;;;;25.40;16.67;;;12.90;99.90;;;;;;5055921;28;20405;-85
2022/03/15 12:34:01;;;;;;;25.30;15.80;;;12.80;99.90;;;;;;5046556;28;20400;-84
2022/03/15 12:36:39;;;;;;;31.60;18.10;;;12.70;99.90;;;;;;5048365;28;20468;-84
2022/03/15 12:39:10;;;;;;;25.80;16.33;;;12.80;99.90;;;;;;5049879;28;20445;-84
2022/03/15 12:41:37;;;;;;;32.33;18.50;;;12.50;99.90;;;;;;5053056;28;20522;-85